sensor_id;sensor_type;location;lat;lon;timestamp;temperature;humidity
17415;DHT22;8825;48.086;16.426;2023-03-04T00:00:31;6.50;55.20
17415;DHT22;8825;48.086;16.426;2023-03-04T00:02:58;6.50;55.30
17415;DHT22;8825;48.086;16.426;2023-03-04T00:05:26;6.50;55.20
17415;DHT22;8825;48.086;16.426;2023-03-04T00:07:53;6.50;55.20
17415;DHT22;8825;48.086;16.426;2023-03-04T00:10:21;6.40;55.50
17415;DHT22;8825;48.086;16.426;2023-03-04T00:12:48;6.40;55.60
17415;DHT22;8825;48.086;16.426;2023-03-04T00:15:16;6.40;55.60
17415;DHT22;8825;48.086;16.426;2023-03-04T00:17:44;6.40;55.60
17415;DHT22;8825;48.086;16.426;2023-03-04T00:20:12;6.40;55.60
17415;DHT22;8825;48.086;16.426;2023-03-04T00:22:40;6.30;55.60
17415;DHT22;8825;48.086;16.426;2023-03-04T00:25:08;6.30;55.40
17415;DHT22;8825;48.086;16.426;2023-03-04T00:27:35;6.30;55.30
17415;DHT22;8825;48.086;16.426;2023-03-04T00:30:05;6.20;55.20
17415;DHT22;8825;48.086;16.426;2023-03-04T00:32:33;6.20;55.30
17415;DHT22;8825;48.086;16.426;2023-03-04T00:35:00;6.10;55.30
17415;DHT22;8825;48.086;16.426;2023-03-04T00:37:28;6.00;55.50
17415;DHT22;8825;48.086;16.426;2023-03-04T00:39:55;6.00;55.60
17415;DHT22;8825;48.086;16.426;2023-03-04T00:42:23;5.90;55.70
17415;DHT22;8825;48.086;16.426;2023-03-04T00:44:50;5.90;55.80
17415;DHT22;8825;48.086;16.426;2023-03-04T00:47:18;5.90;56.00
17415;DHT22;8825;48.086;16.426;2023-03-04T00:49:45;5.90;56.20
17415;DHT22;8825;48.086;16.426;2023-03-04T00:52:13;5.90;56.30
17415;DHT22;8825;48.086;16.426;2023-03-04T00:54:40;5.90;56.30
17415;DHT22;8825;48.086;16.426;2023-03-04T00:57:08;5.80;56.20
17415;DHT22;8825;48.086;16.426;2023-03-04T00:59:35;5.80;56.30
17415;DHT22;8825;48.086;16.426;2023-03-04T01:02:03;5.80;56.40
17415;DHT22;8825;48.086;16.426;2023-03-04T01:04:30;5.70;56.30
17415;DHT22;8825;48.086;16.426;2023-03-04T01:06:58;5.70;56.40
17415;DHT22;8825;48.086;16.426;2023-03-04T01:09:25;5.60;56.40
17415;DHT22;8825;48.086;16.426;2023-03-04T01:11:53;5.60;56.50
17415;DHT22;8825;48.086;16.426;2023-03-04T01:14:20;5.50;56.60
17415;DHT22;8825;48.086;16.426;2023-03-04T01:16:49;5.50;56.70
17415;DHT22;8825;48.086;16.426;2023-03-04T01:19:17;5.50;57.40
17415;DHT22;8825;48.086;16.426;2023-03-04T01:21:44;5.50;57.00
17415;DHT22;8825;48.086;16.426;2023-03-04T01:24:12;5.50;57.20
17415;DHT22;8825;48.086;16.426;2023-03-04T01:26:39;5.50;57.30
17415;DHT22;8825;48.086;16.426;2023-03-04T01:29:07;5.50;57.30
17415;DHT22;8825;48.086;16.426;2023-03-04T01:31:34;5.40;57.20
17415;DHT22;8825;48.086;16.426;2023-03-04T01:34:02;5.40;57.20
17415;DHT22;8825;48.086;16.426;2023-03-04T01:36:29;5.30;57.10
17415;DHT22;8825;48.086;16.426;2023-03-04T01:38:57;5.30;57.10
17415;DHT22;8825;48.086;16.426;2023-03-04T01:41:26;5.20;57.10
17415;DHT22;8825;48.086;16.426;2023-03-04T01:43:56;5.10;57.10
17415;DHT22;8825;48.086;16.426;2023-03-04T01:46:26;5.10;57.10
17415;DHT22;8825;48.086;16.426;2023-03-04T01:48:53;5.00;57.00
17415;DHT22;8825;48.086;16.426;2023-03-04T01:51:21;4.90;57.10
17415;DHT22;8825;48.086;16.426;2023-03-04T01:53:50;4.90;57.10
17415;DHT22;8825;48.086;16.426;2023-03-04T01:56:25;4.90;57.20
17415;DHT22;8825;48.086;16.426;2023-03-04T02:01:36;4.70;57.70
17415;DHT22;8825;48.086;16.426;2023-03-04T02:04:05;4.70;57.50
17415;DHT22;8825;48.086;16.426;2023-03-04T02:06:35;4.60;57.70
17415;DHT22;8825;48.086;16.426;2023-03-04T02:09:04;4.50;57.90
17415;DHT22;8825;48.086;16.426;2023-03-04T02:11:33;4.60;58.10
17415;DHT22;8825;48.086;16.426;2023-03-04T02:14:01;4.50;58.20
17415;DHT22;8825;48.086;16.426;2023-03-04T02:16:30;4.50;58.30
17415;DHT22;8825;48.086;16.426;2023-03-04T02:18:59;4.50;58.50
17415;DHT22;8825;48.086;16.426;2023-03-04T02:21:28;4.50;58.60
17415;DHT22;8825;48.086;16.426;2023-03-04T02:24:06;4.50;58.70
17415;DHT22;8825;48.086;16.426;2023-03-04T02:26:33;4.40;58.60
17415;DHT22;8825;48.086;16.426;2023-03-04T02:29:01;4.40;58.70
17415;DHT22;8825;48.086;16.426;2023-03-04T02:31:35;4.40;58.70
17415;DHT22;8825;48.086;16.426;2023-03-04T02:34:18;4.40;59.00
17415;DHT22;8825;48.086;16.426;2023-03-04T02:36:47;4.40;59.10
17415;DHT22;8825;48.086;16.426;2023-03-04T02:39:33;4.40;59.20
17415;DHT22;8825;48.086;16.426;2023-03-04T02:42:02;4.40;59.30
17415;DHT22;8825;48.086;16.426;2023-03-04T02:44:32;4.50;59.40
17415;DHT22;8825;48.086;16.426;2023-03-04T02:47:01;4.50;59.40
17415;DHT22;8825;48.086;16.426;2023-03-04T02:49:30;4.50;59.30
17415;DHT22;8825;48.086;16.426;2023-03-04T02:52:02;4.60;59.40
17415;DHT22;8825;48.086;16.426;2023-03-04T02:54:30;4.60;59.20
17415;DHT22;8825;48.086;16.426;2023-03-04T02:57:00;4.70;59.20
17415;DHT22;8825;48.086;16.426;2023-03-04T02:59:28;4.70;59.10
17415;DHT22;8825;48.086;16.426;2023-03-04T03:01:56;4.70;59.00
17415;DHT22;8825;48.086;16.426;2023-03-04T03:04:24;4.80;58.90
17415;DHT22;8825;48.086;16.426;2023-03-04T03:06:52;4.80;58.80
17415;DHT22;8825;48.086;16.426;2023-03-04T03:09:20;4.80;58.70
17415;DHT22;8825;48.086;16.426;2023-03-04T03:11:48;4.90;58.60
17415;DHT22;8825;48.086;16.426;2023-03-04T03:14:15;4.90;58.60
17415;DHT22;8825;48.086;16.426;2023-03-04T03:16:43;4.90;58.50
17415;DHT22;8825;48.086;16.426;2023-03-04T03:19:10;4.90;58.40
17415;DHT22;8825;48.086;16.426;2023-03-04T03:21:38;4.90;58.30
17415;DHT22;8825;48.086;16.426;2023-03-04T03:24:05;4.90;58.30
17415;DHT22;8825;48.086;16.426;2023-03-04T03:26:34;4.80;58.30
17415;DHT22;8825;48.086;16.426;2023-03-04T03:29:02;4.80;58.30
17415;DHT22;8825;48.086;16.426;2023-03-04T03:31:29;4.80;58.90
17415;DHT22;8825;48.086;16.426;2023-03-04T03:33:57;4.70;58.20
17415;DHT22;8825;48.086;16.426;2023-03-04T03:36:24;4.70;58.30
17415;DHT22;8825;48.086;16.426;2023-03-04T03:38:52;4.70;58.40
17415;DHT22;8825;48.086;16.426;2023-03-04T03:41:19;4.60;58.40
17415;DHT22;8825;48.086;16.426;2023-03-04T03:43:47;4.60;58.60
17415;DHT22;8825;48.086;16.426;2023-03-04T03:46:14;4.50;58.70
17415;DHT22;8825;48.086;16.426;2023-03-04T03:48:42;4.50;58.70
17415;DHT22;8825;48.086;16.426;2023-03-04T03:51:09;4.50;58.90
17415;DHT22;8825;48.086;16.426;2023-03-04T03:53:37;4.50;58.90
17415;DHT22;8825;48.086;16.426;2023-03-04T03:56:05;4.50;59.00
17415;DHT22;8825;48.086;16.426;2023-03-04T03:58:33;4.50;59.00
17415;DHT22;8825;48.086;16.426;2023-03-04T04:01:00;4.50;59.10
17415;DHT22;8825;48.086;16.426;2023-03-04T04:03:28;4.50;59.20
17415;DHT22;8825;48.086;16.426;2023-03-04T04:05:56;4.40;59.20
17415;DHT22;8825;48.086;16.426;2023-03-04T04:08:23;4.40;59.30
17415;DHT22;8825;48.086;16.426;2023-03-04T04:10:51;4.40;59.50
17415;DHT22;8825;48.086;16.426;2023-03-04T04:13:19;4.40;59.50
17415;DHT22;8825;48.086;16.426;2023-03-04T04:15:46;4.40;59.60
17415;DHT22;8825;48.086;16.426;2023-03-04T04:18:14;4.40;59.60
17415;DHT22;8825;48.086;16.426;2023-03-04T04:20:41;4.40;59.70
17415;DHT22;8825;48.086;16.426;2023-03-04T04:23:09;4.30;59.80
17415;DHT22;8825;48.086;16.426;2023-03-04T04:25:37;4.30;59.90
17415;DHT22;8825;48.086;16.426;2023-03-04T04:28:05;4.30;60.10
17415;DHT22;8825;48.086;16.426;2023-03-04T04:30:32;4.30;60.20
17415;DHT22;8825;48.086;16.426;2023-03-04T04:33:00;4.30;60.20
17415;DHT22;8825;48.086;16.426;2023-03-04T04:35:31;4.20;60.30
17415;DHT22;8825;48.086;16.426;2023-03-04T04:37:59;4.30;60.20
17415;DHT22;8825;48.086;16.426;2023-03-04T04:40:27;4.30;60.20
17415;DHT22;8825;48.086;16.426;2023-03-04T04:42:54;4.20;60.30
17415;DHT22;8825;48.086;16.426;2023-03-04T04:45:23;4.20;60.00
17415;DHT22;8825;48.086;16.426;2023-03-04T04:47:52;4.10;59.90
17415;DHT22;8825;48.086;16.426;2023-03-04T04:50:19;4.10;59.80
17415;DHT22;8825;48.086;16.426;2023-03-04T04:52:47;4.10;59.70
17415;DHT22;8825;48.086;16.426;2023-03-04T04:55:14;4.00;59.70
17415;DHT22;8825;48.086;16.426;2023-03-04T04:57:42;4.00;59.70
17415;DHT22;8825;48.086;16.426;2023-03-04T05:00:10;4.00;59.70
17415;DHT22;8825;48.086;16.426;2023-03-04T05:02:39;3.80;59.60
17415;DHT22;8825;48.086;16.426;2023-03-04T05:05:07;3.70;59.80
17415;DHT22;8825;48.086;16.426;2023-03-04T05:07:35;3.70;60.00
17415;DHT22;8825;48.086;16.426;2023-03-04T05:10:03;3.70;60.00
17415;DHT22;8825;48.086;16.426;2023-03-04T05:12:30;3.70;60.10
17415;DHT22;8825;48.086;16.426;2023-03-04T05:14:58;3.60;60.50
17415;DHT22;8825;48.086;16.426;2023-03-04T05:17:25;3.50;61.00
17415;DHT22;8825;48.086;16.426;2023-03-04T05:19:53;3.30;61.60
17415;DHT22;8825;48.086;16.426;2023-03-04T05:22:20;3.20;61.70
17415;DHT22;8825;48.086;16.426;2023-03-04T05:24:48;3.10;61.80
17415;DHT22;8825;48.086;16.426;2023-03-04T05:27:15;3.00;62.00
17415;DHT22;8825;48.086;16.426;2023-03-04T05:29:43;2.90;62.00
17415;DHT22;8825;48.086;16.426;2023-03-04T05:32:12;2.90;62.10
17415;DHT22;8825;48.086;16.426;2023-03-04T05:34:39;2.90;62.00
17415;DHT22;8825;48.086;16.426;2023-03-04T05:37:07;2.90;62.10
17415;DHT22;8825;48.086;16.426;2023-03-04T05:39:34;2.90;62.00
17415;DHT22;8825;48.086;16.426;2023-03-04T05:42:02;2.90;62.10
17415;DHT22;8825;48.086;16.426;2023-03-04T05:44:29;2.90;62.00
17415;DHT22;8825;48.086;16.426;2023-03-04T05:46:57;3.00;61.80
17415;DHT22;8825;48.086;16.426;2023-03-04T05:49:24;3.00;61.80
17415;DHT22;8825;48.086;16.426;2023-03-04T05:51:52;3.00;61.60
17415;DHT22;8825;48.086;16.426;2023-03-04T05:54:19;3.00;61.40
17415;DHT22;8825;48.086;16.426;2023-03-04T05:56:47;3.00;61.40
17415;DHT22;8825;48.086;16.426;2023-03-04T05:59:14;3.00;61.30
17415;DHT22;8825;48.086;16.426;2023-03-04T06:01:44;3.00;61.30
17415;DHT22;8825;48.086;16.426;2023-03-04T06:04:11;3.00;61.10
17415;DHT22;8825;48.086;16.426;2023-03-04T06:06:39;3.00;61.10
17415;DHT22;8825;48.086;16.426;2023-03-04T06:09:06;3.00;60.90
17415;DHT22;8825;48.086;16.426;2023-03-04T06:11:34;3.10;60.90
17415;DHT22;8825;48.086;16.426;2023-03-04T06:14:01;3.10;60.40
17415;DHT22;8825;48.086;16.426;2023-03-04T06:16:29;3.10;60.20
17415;DHT22;8825;48.086;16.426;2023-03-04T06:18:57;3.10;60.00
17415;DHT22;8825;48.086;16.426;2023-03-04T06:21:24;3.10;60.00
17415;DHT22;8825;48.086;16.426;2023-03-04T06:23:52;3.10;60.00
17415;DHT22;8825;48.086;16.426;2023-03-04T06:26:19;3.10;60.00
17415;DHT22;8825;48.086;16.426;2023-03-04T06:28:47;3.10;59.90
17415;DHT22;8825;48.086;16.426;2023-03-04T06:31:14;3.20;59.90
17415;DHT22;8825;48.086;16.426;2023-03-04T06:33:42;3.20;59.80
17415;DHT22;8825;48.086;16.426;2023-03-04T06:36:09;3.20;59.80
17415;DHT22;8825;48.086;16.426;2023-03-04T06:38:37;3.10;59.90
17415;DHT22;8825;48.086;16.426;2023-03-04T06:41:09;3.10;60.00
17415;DHT22;8825;48.086;16.426;2023-03-04T06:43:37;3.20;60.30
17415;DHT22;8825;48.086;16.426;2023-03-04T06:46:06;3.20;60.30
17415;DHT22;8825;48.086;16.426;2023-03-04T06:48:34;3.30;60.60
17415;DHT22;8825;48.086;16.426;2023-03-04T06:51:06;3.30;60.70
17415;DHT22;8825;48.086;16.426;2023-03-04T06:53:35;3.40;60.80
17415;DHT22;8825;48.086;16.426;2023-03-04T06:56:03;3.40;61.10
17415;DHT22;8825;48.086;16.426;2023-03-04T06:58:31;3.50;61.60
17415;DHT22;8825;48.086;16.426;2023-03-04T07:01:13;3.50;61.80
17415;DHT22;8825;48.086;16.426;2023-03-04T07:03:41;3.60;61.90
17415;DHT22;8825;48.086;16.426;2023-03-04T07:06:10;3.70;62.20
17415;DHT22;8825;48.086;16.426;2023-03-04T07:08:38;3.80;62.30
17415;DHT22;8825;48.086;16.426;2023-03-04T07:11:06;3.90;62.40
17415;DHT22;8825;48.086;16.426;2023-03-04T07:13:34;4.00;62.60
17415;DHT22;8825;48.086;16.426;2023-03-04T07:16:13;4.10;62.60
17415;DHT22;8825;48.086;16.426;2023-03-04T07:18:33;4.20;62.70
17415;DHT22;8825;48.086;16.426;2023-03-04T07:21:01;4.30;63.30
17415;DHT22;8825;48.086;16.426;2023-03-04T07:23:29;4.40;62.60
17415;DHT22;8825;48.086;16.426;2023-03-04T07:25:56;4.50;62.60
17415;DHT22;8825;48.086;16.426;2023-03-04T07:28:24;4.60;62.70
17415;DHT22;8825;48.086;16.426;2023-03-04T07:30:51;4.70;62.70
17415;DHT22;8825;48.086;16.426;2023-03-04T07:33:19;4.80;62.50
17415;DHT22;8825;48.086;16.426;2023-03-04T07:35:47;4.90;62.50
17415;DHT22;8825;48.086;16.426;2023-03-04T07:38:14;5.00;62.60
17415;DHT22;8825;48.086;16.426;2023-03-04T07:40:42;4.90;62.90
17415;DHT22;8825;48.086;16.426;2023-03-04T07:43:11;5.00;63.20
17415;DHT22;8825;48.086;16.426;2023-03-04T07:45:38;5.00;63.70
17415;DHT22;8825;48.086;16.426;2023-03-04T07:48:06;5.00;64.50
17415;DHT22;8825;48.086;16.426;2023-03-04T07:50:33;5.00;64.90
17415;DHT22;8825;48.086;16.426;2023-03-04T07:53:01;5.10;65.00
17415;DHT22;8825;48.086;16.426;2023-03-04T07:55:28;5.20;65.00
17415;DHT22;8825;48.086;16.426;2023-03-04T07:57:57;5.40;65.10
17415;DHT22;8825;48.086;16.426;2023-03-04T08:00:24;5.50;64.90
17415;DHT22;8825;48.086;16.426;2023-03-04T08:02:52;5.70;64.50
17415;DHT22;8825;48.086;16.426;2023-03-04T08:05:19;5.90;64.30
17415;DHT22;8825;48.086;16.426;2023-03-04T08:07:47;6.10;64.20
17415;DHT22;8825;48.086;16.426;2023-03-04T08:10:15;6.30;64.00
17415;DHT22;8825;48.086;16.426;2023-03-04T08:12:42;6.50;63.80
17415;DHT22;8825;48.086;16.426;2023-03-04T08:15:11;6.70;63.50
17415;DHT22;8825;48.086;16.426;2023-03-04T08:17:39;6.90;63.20
17415;DHT22;8825;48.086;16.426;2023-03-04T08:20:07;7.10;62.90
17415;DHT22;8825;48.086;16.426;2023-03-04T08:22:34;7.30;62.50
17415;DHT22;8825;48.086;16.426;2023-03-04T08:25:02;7.50;62.40
17415;DHT22;8825;48.086;16.426;2023-03-04T08:27:30;7.80;63.30
17415;DHT22;8825;48.086;16.426;2023-03-04T08:29:58;8.10;64.20
17415;DHT22;8825;48.086;16.426;2023-03-04T08:32:26;8.40;64.10
17415;DHT22;8825;48.086;16.426;2023-03-04T08:34:53;8.80;63.80
17415;DHT22;8825;48.086;16.426;2023-03-04T08:37:22;9.10;63.20
17415;DHT22;8825;48.086;16.426;2023-03-04T08:39:50;9.50;62.00
17415;DHT22;8825;48.086;16.426;2023-03-04T08:42:17;9.80;60.60
17415;DHT22;8825;48.086;16.426;2023-03-04T08:44:45;10.10;59.40
17415;DHT22;8825;48.086;16.426;2023-03-04T08:47:13;10.30;58.60
17415;DHT22;8825;48.086;16.426;2023-03-04T08:49:40;10.50;57.80
17415;DHT22;8825;48.086;16.426;2023-03-04T08:52:08;10.70;56.90
17415;DHT22;8825;48.086;16.426;2023-03-04T08:54:35;10.90;56.30
17415;DHT22;8825;48.086;16.426;2023-03-04T08:57:03;11.00;55.80
17415;DHT22;8825;48.086;16.426;2023-03-04T08:59:32;11.20;55.00
17415;DHT22;8825;48.086;16.426;2023-03-04T09:02:00;11.30;54.50
17415;DHT22;8825;48.086;16.426;2023-03-04T09:04:27;11.50;53.80
17415;DHT22;8825;48.086;16.426;2023-03-04T09:06:55;11.70;53.20
17415;DHT22;8825;48.086;16.426;2023-03-04T09:09:22;11.90;52.00
17415;DHT22;8825;48.086;16.426;2023-03-04T09:11:50;12.00;51.30
17415;DHT22;8825;48.086;16.426;2023-03-04T09:14:18;12.10;51.50
17415;DHT22;8825;48.086;16.426;2023-03-04T09:16:45;12.30;50.30
17415;DHT22;8825;48.086;16.426;2023-03-04T09:19:13;12.40;50.00
17415;DHT22;8825;48.086;16.426;2023-03-04T09:21:40;12.60;48.90
17415;DHT22;8825;48.086;16.426;2023-03-04T09:24:08;12.70;48.30
17415;DHT22;8825;48.086;16.426;2023-03-04T09:26:35;12.90;47.90
17415;DHT22;8825;48.086;16.426;2023-03-04T09:29:03;13.20;47.60
17415;DHT22;8825;48.086;16.426;2023-03-04T09:31:32;13.60;47.10
17415;DHT22;8825;48.086;16.426;2023-03-04T09:33:59;14.00;45.50
17415;DHT22;8825;48.086;16.426;2023-03-04T09:36:27;14.40;45.50
17415;DHT22;8825;48.086;16.426;2023-03-04T09:38:57;14.80;44.90
17415;DHT22;8825;48.086;16.426;2023-03-04T09:41:50;15.10;43.70
17415;DHT22;8825;48.086;16.426;2023-03-04T09:43:57;15.40;43.00
17415;DHT22;8825;48.086;16.426;2023-03-04T09:46:33;15.70;42.50
17415;DHT22;8825;48.086;16.426;2023-03-04T09:49:02;16.00;41.80
17415;DHT22;8825;48.086;16.426;2023-03-04T09:51:42;16.30;41.50
17415;DHT22;8825;48.086;16.426;2023-03-04T09:54:23;16.60;40.90
17415;DHT22;8825;48.086;16.426;2023-03-04T09:56:46;16.80;39.90
17415;DHT22;8825;48.086;16.426;2023-03-04T09:59:21;16.90;39.90
17415;DHT22;8825;48.086;16.426;2023-03-04T10:02:12;17.10;39.80
17415;DHT22;8825;48.086;16.426;2023-03-04T10:06:46;17.30;38.50
17415;DHT22;8825;48.086;16.426;2023-03-04T10:09:19;17.40;38.00
17415;DHT22;8825;48.086;16.426;2023-03-04T10:11:58;17.50;37.60
17415;DHT22;8825;48.086;16.426;2023-03-04T10:14:34;17.50;37.60
17415;DHT22;8825;48.086;16.426;2023-03-04T10:17:11;17.60;37.10
17415;DHT22;8825;48.086;16.426;2023-03-04T10:22:39;17.70;36.70
17415;DHT22;8825;48.086;16.426;2023-03-04T10:25:20;17.80;36.70
17415;DHT22;8825;48.086;16.426;2023-03-04T10:27:54;17.90;36.00
17415;DHT22;8825;48.086;16.426;2023-03-04T10:33:19;18.00;35.60
17415;DHT22;8825;48.086;16.426;2023-03-04T10:35:46;18.00;35.50
17415;DHT22;8825;48.086;16.426;2023-03-04T10:38:14;18.00;35.60
17415;DHT22;8825;48.086;16.426;2023-03-04T10:40:43;18.10;35.20
17415;DHT22;8825;48.086;16.426;2023-03-04T10:43:18;18.20;35.20
17415;DHT22;8825;48.086;16.426;2023-03-04T10:45:46;18.40;34.60
17415;DHT22;8825;48.086;16.426;2023-03-04T10:48:24;18.50;34.10
17415;DHT22;8825;48.086;16.426;2023-03-04T10:50:51;18.50;34.20
17415;DHT22;8825;48.086;16.426;2023-03-04T10:53:24;18.60;33.60
17415;DHT22;8825;48.086;16.426;2023-03-04T10:55:52;18.50;33.10
17415;DHT22;8825;48.086;16.426;2023-03-04T10:58:20;18.50;33.50
17415;DHT22;8825;48.086;16.426;2023-03-04T11:03:29;18.50;33.70
17415;DHT22;8825;48.086;16.426;2023-03-04T11:06:10;18.60;32.70
17415;DHT22;8825;48.086;16.426;2023-03-04T11:08:34;18.50;32.40
17415;DHT22;8825;48.086;16.426;2023-03-04T11:11:01;18.50;32.90
17415;DHT22;8825;48.086;16.426;2023-03-04T11:13:29;18.40;33.00
17415;DHT22;8825;48.086;16.426;2023-03-04T11:16:05;18.10;32.20
17415;DHT22;8825;48.086;16.426;2023-03-04T11:18:43;17.80;33.20
17415;DHT22;8825;48.086;16.426;2023-03-04T11:21:19;17.60;33.20
17415;DHT22;8825;48.086;16.426;2023-03-04T11:24:05;17.40;33.70
17415;DHT22;8825;48.086;16.426;2023-03-04T11:26:50;17.20;33.50
17415;DHT22;8825;48.086;16.426;2023-03-04T11:29:37;17.10;34.00
17415;DHT22;8825;48.086;16.426;2023-03-04T11:32:26;16.90;33.90
17415;DHT22;8825;48.086;16.426;2023-03-04T11:35:00;16.80;33.60
17415;DHT22;8825;48.086;16.426;2023-03-04T11:37:44;16.60;33.80
17415;DHT22;8825;48.086;16.426;2023-03-04T11:40:32;16.50;33.70
17415;DHT22;8825;48.086;16.426;2023-03-04T11:43:00;16.40;34.00
17415;DHT22;8825;48.086;16.426;2023-03-04T11:46:03;16.30;33.80
17415;DHT22;8825;48.086;16.426;2023-03-04T11:48:18;16.30;34.00
17415;DHT22;8825;48.086;16.426;2023-03-04T11:51:08;16.20;33.20
17415;DHT22;8825;48.086;16.426;2023-03-04T11:56:27;16.00;34.00
17415;DHT22;8825;48.086;16.426;2023-03-04T12:07:04;16.00;33.70
17415;DHT22;8825;48.086;16.426;2023-03-04T12:18:04;16.00;33.50
17415;DHT22;8825;48.086;16.426;2023-03-04T12:23:07;15.90;33.30
17415;DHT22;8825;48.086;16.426;2023-03-04T12:25:58;15.80;33.70
17415;DHT22;8825;48.086;16.426;2023-03-04T12:29:10;15.80;34.10
17415;DHT22;8825;48.086;16.426;2023-03-04T12:34:19;15.80;33.70
17415;DHT22;8825;48.086;16.426;2023-03-04T12:39:28;15.80;34.60
17415;DHT22;8825;48.086;16.426;2023-03-04T12:44:55;15.80;33.90
17415;DHT22;8825;48.086;16.426;2023-03-04T12:50:41;15.70;34.80
17415;DHT22;8825;48.086;16.426;2023-03-04T12:52:41;15.70;34.00
17415;DHT22;8825;48.086;16.426;2023-03-04T12:55:13;15.70;34.10
17415;DHT22;8825;48.086;16.426;2023-03-04T12:57:40;15.70;33.80
17415;DHT22;8825;48.086;16.426;2023-03-04T13:13:38;15.60;33.90
17415;DHT22;8825;48.086;16.426;2023-03-04T13:18:39;15.80;35.10
17415;DHT22;8825;48.086;16.426;2023-03-04T13:21:21;15.90;35.00
17415;DHT22;8825;48.086;16.426;2023-03-04T13:23:51;15.90;34.70
17415;DHT22;8825;48.086;16.426;2023-03-04T13:26:30;15.80;34.00
17415;DHT22;8825;48.086;16.426;2023-03-04T13:32:03;15.80;34.20
17415;DHT22;8825;48.086;16.426;2023-03-04T13:37:31;15.60;34.70
17415;DHT22;8825;48.086;16.426;2023-03-04T13:42:53;15.50;34.60
17415;DHT22;8825;48.086;16.426;2023-03-04T13:45:34;15.40;34.50
17415;DHT22;8825;48.086;16.426;2023-03-04T13:48:06;15.40;34.80
17415;DHT22;8825;48.086;16.426;2023-03-04T13:50:39;15.30;35.20
17415;DHT22;8825;48.086;16.426;2023-03-04T13:56:19;15.30;35.80
17415;DHT22;8825;48.086;16.426;2023-03-04T13:58:42;15.40;35.80
17415;DHT22;8825;48.086;16.426;2023-03-04T14:01:28;15.40;35.70
17415;DHT22;8825;48.086;16.426;2023-03-04T14:03:53;15.50;35.60
17415;DHT22;8825;48.086;16.426;2023-03-04T14:06:26;15.50;35.00
17415;DHT22;8825;48.086;16.426;2023-03-04T14:08:55;15.50;34.10
17415;DHT22;8825;48.086;16.426;2023-03-04T14:14:06;15.40;33.70
17415;DHT22;8825;48.086;16.426;2023-03-04T14:16:39;15.40;33.70
17415;DHT22;8825;48.086;16.426;2023-03-04T14:19:15;15.40;33.30
17415;DHT22;8825;48.086;16.426;2023-03-04T14:21:43;15.40;33.30
17415;DHT22;8825;48.086;16.426;2023-03-04T14:24:15;15.30;32.90
17415;DHT22;8825;48.086;16.426;2023-03-04T14:26:42;15.30;32.80
17415;DHT22;8825;48.086;16.426;2023-03-04T14:29:27;15.20;33.00
17415;DHT22;8825;48.086;16.426;2023-03-04T14:31:55;15.20;33.00
17415;DHT22;8825;48.086;16.426;2023-03-04T14:36:53;15.10;33.60
17415;DHT22;8825;48.086;16.426;2023-03-04T14:39:23;15.10;33.30
17415;DHT22;8825;48.086;16.426;2023-03-04T14:41:53;15.00;33.50
17415;DHT22;8825;48.086;16.426;2023-03-04T14:47:13;15.00;34.00
17415;DHT22;8825;48.086;16.426;2023-03-04T14:49:39;15.00;34.10
17415;DHT22;8825;48.086;16.426;2023-03-04T14:57:47;14.90;34.00
17415;DHT22;8825;48.086;16.426;2023-03-04T15:02:53;14.70;34.50
17415;DHT22;8825;48.086;16.426;2023-03-04T15:05:36;14.70;34.80
17415;DHT22;8825;48.086;16.426;2023-03-04T15:08:16;14.60;34.90
17415;DHT22;8825;48.086;16.426;2023-03-04T15:10:35;14.50;35.20
17415;DHT22;8825;48.086;16.426;2023-03-04T15:13:05;14.50;35.50
17415;DHT22;8825;48.086;16.426;2023-03-04T15:15:37;14.40;35.70
17415;DHT22;8825;48.086;16.426;2023-03-04T15:18:21;14.40;35.80
17415;DHT22;8825;48.086;16.426;2023-03-04T15:20:58;14.30;36.20
17415;DHT22;8825;48.086;16.426;2023-03-04T15:23:28;14.20;36.50
17415;DHT22;8825;48.086;16.426;2023-03-04T15:26:03;14.20;36.90
17415;DHT22;8825;48.086;16.426;2023-03-04T15:28:36;14.10;37.10
17415;DHT22;8825;48.086;16.426;2023-03-04T15:31:04;14.10;37.10
17415;DHT22;8825;48.086;16.426;2023-03-04T15:33:32;13.90;36.60
17415;DHT22;8825;48.086;16.426;2023-03-04T15:36:01;13.60;36.60
17415;DHT22;8825;48.086;16.426;2023-03-04T15:38:29;13.40;37.10
17415;DHT22;8825;48.086;16.426;2023-03-04T15:40:56;13.20;37.60
17415;DHT22;8825;48.086;16.426;2023-03-04T15:43:24;13.00;37.80
17415;DHT22;8825;48.086;16.426;2023-03-04T15:45:52;12.70;38.20
17415;DHT22;8825;48.086;16.426;2023-03-04T15:48:20;12.50;38.50
17415;DHT22;8825;48.086;16.426;2023-03-04T15:50:56;12.30;38.80
17415;DHT22;8825;48.086;16.426;2023-03-04T15:53:45;12.10;39.00
17415;DHT22;8825;48.086;16.426;2023-03-04T15:56:12;12.00;39.40
17415;DHT22;8825;48.086;16.426;2023-03-04T15:58:41;11.80;39.80
17415;DHT22;8825;48.086;16.426;2023-03-04T16:01:16;11.60;40.10
17415;DHT22;8825;48.086;16.426;2023-03-04T16:03:43;11.40;40.50
17415;DHT22;8825;48.086;16.426;2023-03-04T16:06:12;11.20;40.80
17415;DHT22;8825;48.086;16.426;2023-03-04T16:08:41;11.00;41.00
17415;DHT22;8825;48.086;16.426;2023-03-04T16:11:14;10.90;41.40
17415;DHT22;8825;48.086;16.426;2023-03-04T16:13:42;10.80;41.70
17415;DHT22;8825;48.086;16.426;2023-03-04T16:16:11;10.70;42.00
17415;DHT22;8825;48.086;16.426;2023-03-04T16:18:40;10.60;42.20
17415;DHT22;8825;48.086;16.426;2023-03-04T16:21:19;10.50;42.40
17415;DHT22;8825;48.086;16.426;2023-03-04T16:23:50;10.40;42.70
17415;DHT22;8825;48.086;16.426;2023-03-04T16:26:21;10.30;42.90
17415;DHT22;8825;48.086;16.426;2023-03-04T16:28:50;10.10;43.10
17415;DHT22;8825;48.086;16.426;2023-03-04T16:31:19;10.00;43.30
17415;DHT22;8825;48.086;16.426;2023-03-04T16:33:48;9.90;43.60
17415;DHT22;8825;48.086;16.426;2023-03-04T16:36:21;9.80;43.80
17415;DHT22;8825;48.086;16.426;2023-03-04T16:38:50;9.70;44.00
17415;DHT22;8825;48.086;16.426;2023-03-04T16:41:21;9.60;44.10
17415;DHT22;8825;48.086;16.426;2023-03-04T16:43:49;9.50;44.50
17415;DHT22;8825;48.086;16.426;2023-03-04T16:46:16;9.40;44.70
17415;DHT22;8825;48.086;16.426;2023-03-04T16:48:44;9.30;44.90
17415;DHT22;8825;48.086;16.426;2023-03-04T16:51:15;9.20;45.20
17415;DHT22;8825;48.086;16.426;2023-03-04T16:53:48;9.10;45.40
17415;DHT22;8825;48.086;16.426;2023-03-04T16:56:17;9.00;45.60
17415;DHT22;8825;48.086;16.426;2023-03-04T16:58:46;8.90;45.80
17415;DHT22;8825;48.086;16.426;2023-03-04T17:01:18;8.80;45.90
17415;DHT22;8825;48.086;16.426;2023-03-04T17:03:46;8.80;46.00
17415;DHT22;8825;48.086;16.426;2023-03-04T17:06:15;8.70;46.20
17415;DHT22;8825;48.086;16.426;2023-03-04T17:08:43;8.60;46.30
17415;DHT22;8825;48.086;16.426;2023-03-04T17:11:16;8.50;46.50
17415;DHT22;8825;48.086;16.426;2023-03-04T17:13:41;8.50;47.30
17415;DHT22;8825;48.086;16.426;2023-03-04T17:16:10;8.40;46.90
17415;DHT22;8825;48.086;16.426;2023-03-04T17:18:38;8.30;47.00
17415;DHT22;8825;48.086;16.426;2023-03-04T17:21:14;8.30;47.20
17415;DHT22;8825;48.086;16.426;2023-03-04T17:23:37;8.30;47.30
17415;DHT22;8825;48.086;16.426;2023-03-04T17:26:05;8.20;47.30